Time;durP1;ratioP1;P1;durP2;ratioP2;P2;SDS_P1;SDS_P2;PMS_P1;PMS_P2;Temp;Humidity;BMP_temperature;BMP_pressure;BME280_temperature;BME280_humidity;BME280_pressure;Samples;Min_cycle;Max_cycle;Signal;HPM_P1;HPM_P2
2023/03/05 00:00:12;;;;;;;29.73;14.77;;;;;;;7.31;100.00;94002.66;5008080;28;20214;-55
2023/03/05 00:02:37;;;;;;;27.60;14.70;;;;;;;7.35;100.00;94024.22;5008051;28;20226;-55
2023/03/05 00:05:03;;;;;;;27.60;15.90;;;;;;;7.19;100.00;94013.78;5008436;28;20253;-56
2023/03/05 00:07:28;;;;;;;29.20;16.37;;;;;;;7.26;100.00;93995.44;5008257;28;20190;-55
2023/03/05 00:09:53;;;;;;;28.43;14.73;;;;;;;7.24;100.00;93993.97;5008166;28;20599;-57
2023/03/05 00:12:19;;;;;;;26.30;15.23;;;;;;;7.07;100.00;93990.28;5007894;28;20247;-57
2023/03/05 00:14:44;;;;;;;32.53;14.70;;;;;;;7.14;100.00;94026.78;5008072;28;20238;-56
2023/03/05 00:17:09;;;;;;;28.90;15.27;;;;;;;7.16;100.00;94031.69;5008243;28;20655;-55
2023/03/05 00:19:35;;;;;;;27.50;15.47;;;;;;;7.13;100.00;94011.75;5007876;28;20234;-54
2023/03/05 00:22:00;;;;;;;23.33;13.53;;;;;;;7.05;100.00;94055.31;5007878;28;20274;-55
2023/03/05 00:24:26;;;;;;;24.57;14.00;;;;;;;7.20;100.00;94038.91;5008106;28;20653;-54
2023/03/05 00:26:52;;;;;;;26.27;15.57;;;;;;;7.28;100.00;94000.38;5007993;28;20187;-54
2023/03/05 00:29:20;;;;;;;28.50;14.83;;;;;;;7.36;100.00;94013.19;5010970;28;20211;-54
2023/03/05 00:31:46;;;;;;;28.53;15.20;;;;;;;7.47;100.00;94039.16;5010897;28;20187;-58
2023/03/05 00:34:14;;;;;;;27.20;15.47;;;;;;;7.48;100.00;94023.09;5011052;28;20219;-58
2023/03/05 00:36:46;;;;;;;30.67;15.83;;;;;;;7.53;100.00;94012.59;5010927;28;20190;-60
2023/03/05 00:39:12;;;;;;;27.53;15.57;;;;;;;7.32;100.00;94034.56;5010703;28;20222;-57
2023/03/05 00:41:39;;;;;;;25.93;14.87;;;;;;;7.12;100.00;94025.28;5010764;28;20199;-58
2023/03/05 00:44:05;;;;;;;22.90;13.57;;;;;;;7.13;100.00;94031.97;5010958;28;20215;-58
2023/03/05 00:46:31;;;;;;;27.00;14.63;;;;;;;7.20;100.00;94036.38;5009294;28;20199;-57
2023/03/05 00:48:56;;;;;;;22.83;14.00;;;;;;;7.10;100.00;94024.63;5010765;28;20283;-58
2023/03/05 00:51:24;;;;;;;27.97;14.60;;;;;;;7.22;100.00;94028.69;5010544;28;20191;-54
2023/03/05 00:53:49;;;;;;;27.63;14.37;;;;;;;7.05;100.00;94032.56;5016281;23;20226;-57
2023/03/05 00:56:15;;;;;;;25.83;14.60;;;;;;;7.03;100.00;94039.47;4990936;28;20211;-58
2023/03/05 00:58:41;;;;;;;24.53;14.33;;;;;;;7.16;100.00;94029.19;4990929;28;20278;-58
2023/03/05 01:01:06;;;;;;;26.73;13.33;;;;;;;7.14;100.00;94005.75;4991012;28;20666;-56
2023/03/05 01:03:33;;;;;;;23.70;14.00;;;;;;;7.38;100.00;94011.31;4990936;28;20195;-58
2023/03/05 01:05:58;;;;;;;23.77;13.27;;;;;;;7.44;100.00;94023.47;4990876;28;20196;-58
2023/03/05 01:08:25;;;;;;;23.00;12.03;;;;;;;7.19;100.00;94049.94;4991168;28;20237;-54
2023/03/05 01:10:51;;;;;;;23.53;12.40;;;;;;;7.21;100.00;94035.44;4990839;28;20204;-54
2023/03/05 01:13:17;;;;;;;24.63;13.60;;;;;;;7.27;100.00;94072.88;4991003;28;20224;-55
2023/03/05 01:15:42;;;;;;;24.17;13.10;;;;;;;7.35;100.00;94067.22;4990795;28;20227;-58
2023/03/05 01:18:08;;;;;;;28.30;12.87;;;;;;;7.15;100.00;94035.94;4989628;28;20633;-61
2023/03/05 01:20:33;;;;;;;19.13;11.93;;;;;;;7.20;100.00;94061.66;4990552;28;20227;-58
2023/03/05 01:23:00;;;;;;;25.83;12.47;;;;;;;7.33;100.00;94091.81;4990689;28;20191;-57
2023/03/05 01:25:26;;;;;;;22.90;12.93;;;;;;;7.11;100.00;94079.31;4990470;28;20227;-58
2023/03/05 01:27:51;;;;;;;24.83;14.90;;;;;;;6.91;100.00;94073.28;4990653;28;20236;-54
2023/03/05 01:30:17;;;;;;;20.40;11.97;;;;;;;6.82;100.00;94060.59;4990526;28;20306;-54
2023/03/05 01:32:42;;;;;;;22.23;12.27;;;;;;;6.67;100.00;94050.81;4990723;28;20214;-55
2023/03/05 01:35:15;;;;;;;18.83;11.17;;;;;;;6.63;100.00;94046.91;4990471;28;20223;-54
2023/03/05 01:37:40;;;;;;;19.53;11.17;;;;;;;6.82;100.00;94063.13;4990155;28;20199;-54
2023/03/05 01:40:06;;;;;;;20.17;12.37;;;;;;;6.77;100.00;94059.25;4990286;28;20716;-54
2023/03/05 01:42:32;;;;;;;23.30;12.97;;;;;;;6.62;100.00;94063.00;4990275;28;20203;-54
2023/03/05 01:45:01;;;;;;;20.57;11.53;;;;;;;6.58;100.00;94059.13;4990555;28;20211;-57
2023/03/05 01:47:27;;;;;;;18.07;11.57;;;;;;;6.53;100.00;94050.28;4990307;28;20688;-58
2023/03/05 01:49:53;;;;;;;23.13;11.60;;;;;;;6.45;100.00;94045.03;4990265;28;20216;-58
2023/03/05 01:52:21;;;;;;;20.03;11.30;;;;;;;6.51;100.00;94049.59;4990319;28;20211;-57
2023/03/05 01:54:53;;;;;;;24.33;11.80;;;;;;;6.55;100.00;94063.59;4990567;28;20204;-57
2023/03/05 01:57:23;;;;;;;20.97;12.10;;;;;;;6.65;100.00;94054.38;4990357;28;20200;-55
2023/03/05 01:59:55;;;;;;;21.47;11.80;;;;;;;6.62;100.00;94060.47;4990523;28;20221;-55
2023/03/05 02:02:23;;;;;;;19.97;11.77;;;;;;;6.80;100.00;94063.25;4990479;28;20200;-55
2023/03/05 02:05:16;;;;;;;21.23;12.07;;;;;;;6.75;100.00;94061.09;4990278;28;20207;-56
2023/03/05 02:07:42;;;;;;;21.43;11.67;;;;;;;6.80;100.00;94098.63;4989122;28;20215;-55
2023/03/05 02:10:32;;;;;;;19.60;10.90;;;;;;;6.75;100.00;94096.44;4990044;28;20756;-55
2023/03/05 02:13:01;;;;;;;20.20;11.53;;;;;;;6.72;100.00;94116.91;4990289;28;20231;-54
2023/03/05 02:15:28;;;;;;;17.23;11.50;;;;;;;6.75;100.00;94091.41;4990007;28;20300;-54
2023/03/05 02:17:53;;;;;;;21.50;10.77;;;;;;;6.78;100.00;94118.97;4990166;28;20244;-58
2023/03/05 02:20:25;;;;;;;20.30;11.70;;;;;;;6.69;100.00;94108.75;4990107;28;20307;-57
2023/03/05 02:22:50;;;;;;;23.00;11.37;;;;;;;6.69;100.00;94086.84;4988772;28;20195;-57
2023/03/05 02:25:23;;;;;;;21.50;12.10;;;;;;;6.72;100.00;94100.94;4989850;28;20223;-58
2023/03/05 02:27:55;;;;;;;22.83;12.10;;;;;;;6.71;100.00;94105.19;4990036;28;20195;-54
2023/03/05 02:30:20;;;;;;;20.87;10.80;;;;;;;6.71;100.00;94115.28;4989831;28;20705;-54
2023/03/05 02:32:46;;;;;;;22.10;12.43;;;;;;;6.71;100.00;94119.53;4989713;28;20196;-55
2023/03/05 02:35:11;;;;;;;24.97;13.13;;;;;;;6.80;100.00;94088.53;4989699;28;20227;-53
2023/03/05 02:37:37;;;;;;;20.70;11.40;;;;;;;6.89;100.00;94104.69;4989726;28;20191;-55
2023/03/05 02:40:03;;;;;;;21.20;11.40;;;;;;;7.03;100.00;94094.28;4989966;28;20219;-53
2023/03/05 02:42:32;;;;;;;18.77;10.57;;;;;;;6.80;100.00;94116.31;4989562;28;20195;-54
2023/03/05 02:44:59;;;;;;;15.13;10.47;;;;;;;6.99;100.00;94108.84;4989947;28;20226;-58
2023/03/05 02:47:25;;;;;;;21.97;11.97;;;;;;;6.85;100.00;94123.53;4989582;28;20199;-56
2023/03/05 02:49:50;;;;;;;20.30;11.43;;;;;;;6.74;100.00;94112.53;4988750;28;20658;-54
2023/03/05 02:52:15;;;;;;;22.17;11.33;;;;;;;6.62;100.00;94088.25;4989697;28;20199;-54
2023/03/05 02:54:41;;;;;;;20.63;11.10;;;;;;;6.65;100.00;94090.53;4989596;28;20346;-57
2023/03/05 02:57:06;;;;;;;19.43;11.07;;;;;;;6.70;100.00;94097.75;4989956;28;20681;-54
2023/03/05 02:59:32;;;;;;;21.47;11.97;;;;;;;6.56;100.00;94082.88;4989785;28;20259;-54
2023/03/05 03:01:57;;;;;;;25.70;13.43;;;;;;;6.50;100.00;94071.53;4989543;28;20199;-54
2023/03/05 03:04:22;;;;;;;23.17;12.40;;;;;;;6.31;100.00;94028.44;4989742;28;20203;-55
2023/03/05 03:06:48;;;;;;;24.07;12.63;;;;;;;6.36;100.00;94028.88;4989432;28;20194;-54
2023/03/05 03:09:13;;;;;;;21.40;12.20;;;;;;;6.32;100.00;94019.94;4989628;28;20286;-54
2023/03/05 03:11:39;;;;;;;23.60;13.30;;;;;;;6.29;100.00;93999.19;4988239;28;20205;-56
2023/03/05 03:14:04;;;;;;;24.67;12.00;;;;;;;6.28;100.00;94015.28;4989623;28;20284;-58
2023/03/05 03:16:29;;;;;;;23.13;13.20;;;;;;;6.32;100.00;94012.38;4989518;28;20283;-58
2023/03/05 03:18:55;;;;;;;24.43;13.00;;;;;;;6.25;100.00;94015.50;4989332;28;20219;-55
2023/03/05 03:21:23;;;;;;;22.37;13.03;;;;;;;6.15;100.00;93985.16;4989577;28;20552;-53
2023/03/05 03:23:49;;;;;;;26.57;13.63;;;;;;;6.30;100.00;94008.38;4989455;28;20264;-54
2023/03/05 03:26:14;;;;;;;24.10;14.20;;;;;;;6.11;100.00;93993.88;4989212;28;20613;-56
2023/03/05 03:28:40;;;;;;;26.43;13.93;;;;;;;6.06;100.00;93995.94;4989355;28;20589;-56
2023/03/05 03:31:06;;;;;;;23.23;12.60;;;;;;;5.84;100.00;93976.63;4989212;28;20206;-55
2023/03/05 03:33:31;;;;;;;26.23;14.03;;;;;;;5.87;100.00;93971.38;4989196;28;20199;-56
2023/03/05 03:35:57;;;;;;;33.33;13.87;;;;;;;5.74;100.00;93955.53;4988974;28;20259;-56
2023/03/05 03:38:22;;;;;;;24.50;13.33;;;;;;;5.83;100.00;93959.91;4989358;28;20588;-55
2023/03/05 03:40:47;;;;;;;29.77;15.00;;;;;;;5.89;100.00;93974.56;4989109;28;20359;-55
2023/03/05 03:43:13;;;;;;;26.73;14.17;;;;;;;5.91;100.00;93987.88;4989255;28;20226;-55
2023/03/05 03:45:42;;;;;;;24.43;13.27;;;;;;;5.87;100.00;94000.81;4989102;28;20226;-55
2023/03/05 03:48:08;;;;;;;25.00;13.00;;;;;;;5.77;100.00;93993.16;4989044;28;20562;-59
2023/03/05 03:50:37;;;;;;;25.17;14.40;;;;;;;5.76;100.00;93989.00;4987639;28;20233;-56
2023/03/05 03:53:03;;;;;;;26.00;13.57;;;;;;;5.87;100.00;94000.81;4988805;28;20187;-58
2023/03/05 03:55:28;;;;;;;27.17;14.07;;;;;;;5.78;100.00;93992.22;4987697;28;20226;-56
2023/03/05 03:57:53;;;;;;;25.27;14.10;;;;;;;5.73;100.00;93983.41;4988799;28;20230;-54
2023/03/05 04:00:19;;;;;;;23.93;13.40;;;;;;;5.72;100.00;93984.31;4988679;28;20633;-54
2023/03/05 04:02:44;;;;;;;27.57;14.43;;;;;;;5.56;100.00;93984.69;4994356;28;20672;-58
2023/03/05 04:05:10;;;;;;;25.37;12.67;;;;;;;5.61;100.00;93984.34;4994960;28;20313;-55
2023/03/05 04:07:35;;;;;;;28.87;14.80;;;;;;;5.65;100.00;93990.75;4995526;28;20214;-57
2023/03/05 04:10:02;;;;;;;29.87;14.20;;;;;;;5.63;100.00;93983.31;4995407;28;20691;-57
2023/03/05 04:12:27;;;;;;;29.87;13.83;;;;;;;5.67;100.00;93976.31;4995180;28;20318;-54
2023/03/05 04:14:52;;;;;;;28.37;15.20;;;;;;;5.58;100.00;93982.03;4995235;28;20673;-53
2023/03/05 04:17:18;;;;;;;26.50;13.03;;;;;;;5.52;100.00;93977.47;4995058;28;20225;-54
2023/03/05 04:19:43;;;;;;;27.80;14.53;;;;;;;5.43;100.00;93955.50;4994734;28;20218;-53
2023/03/05 04:22:17;;;;;;;27.30;13.97;;;;;;;5.46;100.00;93951.00;4995046;28;20611;-55
2023/03/05 04:24:43;;;;;;;34.03;14.93;;;;;;;5.49;100.00;93947.47;4994924;28;20217;-54
2023/03/05 04:27:09;;;;;;;26.33;14.40;;;;;;;5.53;100.00;93961.44;4994846;28;20195;-54
2023/03/05 04:29:35;;;;;;;28.87;15.07;;;;;;;5.51;100.00;93961.56;4995335;28;20211;-54
2023/03/05 04:32:01;;;;;;;27.37;14.67;;;;;;;5.51;100.00;93966.59;4994718;28;20210;-54
2023/03/05 04:34:26;;;;;;;28.07;15.57;;;;;;;5.49;100.00;93978.53;4995096;28;20209;-54
2023/03/05 04:36:52;;;;;;;26.83;15.17;;;;;;;5.49;100.00;93981.03;4994568;28;20600;-53
2023/03/05 04:39:19;;;;;;;24.83;14.20;;;;;;;5.38;100.00;93986.06;4994744;28;20237;-54
2023/03/05 04:41:46;;;;;;;25.27;13.33;;;;;;;5.40;100.00;93993.50;4994587;28;20251;-54
2023/03/05 04:44:11;;;;;;;23.43;12.67;;;;;;;5.40;100.00;93986.75;4993407;28;20341;-58
2023/03/05 04:46:36;;;;;;;27.37;14.47;;;;;;;5.46;100.00;93993.03;4994671;28;20202;-57
2023/03/05 04:49:02;;;;;;;24.03;11.90;;;;;;;5.39;100.00;94000.28;4994450;28;20695;-57
2023/03/05 04:51:27;;;;;;;28.33;14.60;;;;;;;5.41;100.00;93998.47;4994572;28;20210;-54
2023/03/05 04:53:53;;;;;;;26.77;13.53;;;;;;;5.39;100.00;93981.84;4993218;28;20524;-54
2023/03/05 04:56:19;;;;;;;25.53;12.70;;;;;;;5.38;100.00;93973.47;4994481;28;20237;-55
2023/03/05 04:58:44;;;;;;;23.53;12.97;;;;;;;5.36;100.00;93987.09;4994598;28;20211;-55
2023/03/05 05:01:10;;;;;;;23.07;13.47;;;;;;;5.38;100.00;93993.63;4994425;28;20550;-57
2023/03/05 05:03:35;;;;;;;27.23;13.73;;;;;;;5.42;100.00;93984.13;4993125;28;20249;-56
2023/03/05 05:06:01;;;;;;;23.53;13.47;;;;;;;5.45;100.00;94009.09;4994379;28;20202;-57
2023/03/05 05:08:26;;;;;;;23.17;12.90;;;;;;;5.49;100.00;93995.34;4994232;28;20580;-57
2023/03/05 05:11:04;;;;;;;27.83;12.30;;;;;;;5.50;100.00;94001.97;4994157;28;20289;-56
2023/03/05 05:13:31;;;;;;;25.40;13.13;;;;;;;5.49;100.00;94006.25;4991708;28;20190;-54
2023/03/05 05:15:57;;;;;;;25.57;13.87;;;;;;;5.37;100.00;93984.50;4990788;28;20210;-54
2023/03/05 05:18:24;;;;;;;24.93;13.43;;;;;;;5.41;100.00;94022.84;4990859;28;20183;-55
2023/03/05 05:20:49;;;;;;;27.60;12.80;;;;;;;5.46;100.00;94035.88;4990550;28;20246;-53
2023/03/05 05:23:15;;;;;;;24.20;13.77;;;;;;;5.44;100.00;94040.25;4990912;28;20227;-53
2023/03/05 05:25:42;;;;;;;25.53;12.70;;;;;;;5.40;100.00;94028.78;4990542;28;20219;-53
2023/03/05 05:28:08;;;;;;;25.40;13.47;;;;;;;5.42;100.00;94049.63;4990660;28;20219;-53
2023/03/05 05:30:34;;;;;;;28.33;13.67;;;;;;;5.38;100.00;94045.75;4990619;28;20215;-54
2023/03/05 05:32:59;;;;;;;27.07;13.63;;;;;;;5.47;100.00;94055.16;4990678;28;20205;-54
2023/03/05 05:35:25;;;;;;;25.90;12.27;;;;;;;5.45;100.00;94065.34;4990563;28;20216;-55
2023/03/05 05:37:50;;;;;;;26.97;13.43;;;;;;;5.37;100.00;94064.31;4990698;28;20276;-54
2023/03/05 05:40:16;;;;;;;24.07;12.27;;;;;;;5.37;100.00;94066.84;4990542;28;20379;-54
2023/03/05 05:42:41;;;;;;;24.17;11.70;;;;;;;5.35;100.00;94073.69;4990402;28;20678;-55
2023/03/05 05:45:08;;;;;;;25.37;12.20;;;;;;;5.38;100.00;94079.31;4990385;28;20218;-54
2023/03/05 05:47:33;;;;;;;23.27;11.57;;;;;;;5.43;100.00;94109.22;4990520;28;20194;-54
2023/03/05 05:49:58;;;;;;;22.10;12.00;;;;;;;5.43;100.00;94111.75;4989000;28;20351;-54
2023/03/05 05:52:24;;;;;;;26.03;11.87;;;;;;;5.45;100.00;94102.34;4990506;28;20218;-58
2023/03/05 05:54:49;;;;;;;23.50;11.60;;;;;;;5.40;100.00;94125.34;4990427;28;20219;-55
2023/03/05 05:57:15;;;;;;;23.80;12.10;;;;;;;5.49;100.00;94127.22;4990425;28;20205;-53
2023/03/05 05:59:40;;;;;;;23.43;11.90;;;;;;;5.63;100.00;94148.88;4990042;28;20229;-54
2023/03/05 06:02:10;;;;;;;27.60;12.83;;;;;;;5.62;100.00;94168.25;4990230;28;20210;-58
2023/03/05 06:04:36;;;;;;;23.50;12.20;;;;;;;5.62;100.00;94173.28;4988943;28;20235;-53
2023/03/05 06:07:02;;;;;;;23.33;11.33;;;;;;;5.63;100.00;94207.69;4989997;28;20214;-54
2023/03/05 06:09:28;;;;;;;20.57;10.93;;;;;;;5.65;100.00;94187.38;4990298;28;20219;-56
2023/03/05 06:11:53;;;;;;;21.90;11.40;;;;;;;5.71;100.00;94202.06;4990004;28;20191;-54
2023/03/05 06:14:18;;;;;;;26.27;13.60;;;;;;;6.91;100.00;93901.50;4989975;28;20208;-54
2023/03/05 06:16:44;;;;;;;19.30;10.67;;;;;;;6.93;100.00;94184.34;4989866;28;20732;-54
2023/03/05 06:19:11;;;;;;;22.37;11.20;;;;;;;6.36;100.00;94154.28;4989724;28;20681;-53
2023/03/05 06:21:36;;;;;;;26.03;10.80;;;;;;;6.42;100.00;94164.69;4989936;28;20219;-58
2023/03/05 06:24:02;;;;;;;17.67;9.90;;;;;;;6.20;100.00;94164.72;4989670;28;20242;-60
2023/03/05 06:26:28;;;;;;;18.50;10.67;;;;;;;5.91;100.00;94176.22;4988897;28;20582;-56
2023/03/05 06:28:54;;;;;;;18.40;10.10;;;;;;;5.68;100.00;94132.50;4990093;28;20769;-58
2023/03/05 06:31:24;;;;;;;23.10;10.53;;;;;;;5.90;100.00;94185.50;4989758;28;20252;-57
2023/03/05 06:33:51;;;;;;;18.53;10.07;;;;;;;6.00;100.00;94189.88;4989800;28;20297;-57
2023/03/05 06:36:19;;;;;;;22.17;11.50;;;;;;;6.06;100.00;94191.94;4989780;28;20201;-57
2023/03/05 06:38:44;;;;;;;17.77;10.90;;;;;;;5.96;100.00;94221.28;4989667;28;20237;-58
2023/03/05 06:41:13;;;;;;;16.30;10.03;;;;;;;6.01;100.00;94225.06;4988660;28;20216;-59
2023/03/05 06:43:41;;;;;;;23.73;10.20;;;;;;;5.89;100.00;94231.81;4989467;28;20273;-58
2023/03/05 06:46:11;;;;;;;15.17;9.10;;;;;;;6.01;100.00;94236.88;4989673;28;20274;-56
2023/03/05 06:48:37;;;;;;;19.53;9.60;;;;;;;6.03;100.00;94240.09;4989776;28;20191;-56
2023/03/05 06:51:02;;;;;;;18.50;10.07;;;;;;;6.13;100.00;94264.53;4989661;28;20209;-53
2023/03/05 06:53:28;;;;;;;20.80;10.87;;;;;;;6.04;100.00;94259.38;4989742;28;20190;-53
2023/03/05 06:55:53;;;;;;;22.13;10.60;;;;;;;6.06;100.00;94298.69;4989515;28;20198;-59
2023/03/05 06:58:19;;;;;;;21.13;10.30;;;;;;;6.05;100.00;94281.94;4989637;28;20202;-55
2023/03/05 07:00:45;;;;;;;21.83;10.73;;;;;;;6.25;100.00;94283.00;4989219;28;20261;-55
2023/03/05 07:03:11;;;;;;;21.00;10.00;;;;;;;6.20;100.00;94311.09;4989472;28;20187;-56
2023/03/05 07:05:40;;;;;;;24.13;11.17;;;;;;;6.25;100.00;94293.91;4989368;28;20226;-56
2023/03/05 07:08:06;;;;;;;20.87;10.53;;;;;;;6.43;100.00;94327.88;4988454;28;20205;-57
2023/03/05 07:10:38;;;;;;;17.40;10.07;;;;;;;6.51;100.00;94335.69;4989461;28;20223;-58
2023/03/05 07:13:03;;;;;;;16.83;9.93;;;;;;;6.44;100.00;94346.38;4989528;28;20574;-54
2023/03/05 07:15:29;;;;;;;19.87;10.63;;;;;;;6.49;100.00;94327.44;4989281;28;20230;-54
2023/03/05 07:17:55;;;;;;;22.83;10.47;;;;;;;6.41;100.00;94356.69;4989237;28;20198;-57
2023/03/05 07:20:20;;;;;;;23.63;11.13;;;;;;;6.42;100.00;94315.38;4987893;28;20238;-59
2023/03/05 07:22:46;;;;;;;18.97;10.77;;;;;;;6.58;100.00;94344.44;4987978;28;20191;-62
2023/03/05 07:25:12;;;;;;;22.37;12.17;;;;;;;6.75;100.00;94371.75;4987810;28;20250;-58
2023/03/05 07:27:37;;;;;;;24.03;12.07;;;;;;;6.67;100.00;94363.94;4989150;28;20188;-57
2023/03/05 07:30:03;;;;;;;24.00;12.70;;;;;;;7.00;100.00;94388.41;4988953;28;20286;-59
2023/03/05 07:32:28;;;;;;;25.20;11.10;;;;;;;6.70;100.00;94335.13;4987834;28;20690;-56
2023/03/05 07:34:54;;;;;;;26.53;12.43;;;;;;;7.62;100.00;93872.72;4989296;28;20268;-58
2023/03/05 07:37:19;;;;;;;21.17;11.40;;;;;;;7.73;100.00;94335.53;4988392;28;20191;-60
2023/03/05 07:39:45;;;;;;;20.87;11.70;;;;;;;7.40;83.64;94340.69;4989183;28;20720;-59
2023/03/05 07:42:10;;;;;;;21.93;11.77;;;;;;;7.17;82.08;94313.84;4988899;28;20199;-59
2023/03/05 07:44:37;;;;;;;20.33;11.23;;;;;;;7.01;80.53;94300.78;4988854;28;20642;-59
2023/03/05 07:47:03;;;;;;;21.40;11.67;;;;;;;6.67;81.82;94244.44;4988849;28;20221;-58
2023/03/05 07:49:30;;;;;;;22.40;12.30;;;;;;;6.68;81.97;94231.72;4988576;28;20295;-59
2023/03/05 07:51:55;;;;;;;22.93;11.57;;;;;;;6.84;83.75;94203.56;4987335;28;20253;-57
2023/03/05 07:54:21;;;;;;;24.17;14.03;;;;;;;6.97;82.44;94248.88;4988817;28;20218;-57
2023/03/05 07:56:47;;;;;;;23.20;12.20;;;;;;;7.01;82.41;94225.78;4988582;28;20206;-59
2023/03/05 07:59:13;;;;;;;21.97;13.43;;;;;;;7.06;82.70;94236.34;4988717;28;20230;-59
2023/03/05 08:01:39;;;;;;;25.53;12.37;;;;;;;7.01;82.88;94207.31;4988493;28;20198;-56
2023/03/05 08:04:07;;;;;;;25.83;13.33;;;;;;;7.05;81.18;94254.94;4988509;28;20237;-58
2023/03/05 08:06:32;;;;;;;24.40;13.03;;;;;;;7.20;82.07;94242.84;4988724;28;20199;-56
2023/03/05 08:08:58;;;;;;;24.07;13.57;;;;;;;7.23;81.53;94267.88;4988710;28;20237;-58
2023/03/05 08:11:25;;;;;;;23.47;12.90;;;;;;;7.12;81.66;94247.69;4988630;28;20282;-56
2023/03/05 08:13:50;;;;;;;24.80;13.07;;;;;;;7.14;81.84;94258.47;4988299;28;20211;-59
2023/03/05 08:16:20;;;;;;;25.67;12.83;;;;;;;7.18;81.78;94240.44;4988550;28;20297;-59
2023/03/05 08:18:47;;;;;;;28.33;12.73;;;;;;;7.12;81.91;94232.53;4988245;28;20211;-58
2023/03/05 08:21:21;;;;;;;21.47;12.23;;;;;;;7.28;82.14;94240.50;4988410;28;20200;-56
2023/03/05 08:23:47;;;;;;;29.33;14.53;;;;;;;7.38;81.89;94244.72;4988443;28;20598;-56
2023/03/05 08:26:16;;;;;;;24.50;14.00;;;;;;;7.28;83.15;94205.13;4987124;28;20192;-55
2023/03/05 08:28:42;;;;;;;27.73;15.10;;;;;;;7.43;82.93;94208.97;4988228;28;20183;-55
2023/03/05 08:31:09;;;;;;;29.73;15.30;;;;;;;7.37;83.17;94206.94;4988249;28;20680;-54
2023/03/05 08:33:35;;;;;;;27.33;13.20;;;;;;;7.35;82.33;94216.38;4988167;28;20597;-58
2023/03/05 08:36:00;;;;;;;29.80;13.40;;;;;;;7.41;82.41;94228.53;4988002;28;20199;-58
2023/03/05 08:38:26;;;;;;;29.83;14.90;;;;;;;7.31;81.63;94230.94;4988025;28;20645;-58
2023/03/05 08:40:51;;;;;;;27.67;15.03;;;;;;;7.39;82.19;94213.44;4987997;28;20227;-58
2023/03/05 08:43:17;;;;;;;28.30;14.93;;;;;;;7.44;82.27;94218.16;4988137;28;20275;-59
2023/03/05 08:45:43;;;;;;;26.27;14.37;;;;;;;7.51;82.61;94206.63;4986765;28;20576;-58
2023/03/05 08:48:08;;;;;;;28.27;15.00;;;;;;;7.59;82.13;94229.59;4988230;28;20194;-59
2023/03/05 08:50:35;;;;;;;27.50;15.27;;;;;;;7.66;81.53;94233.22;4990643;28;20599;-58
2023/03/05 08:53:01;;;;;;;28.20;16.17;;;;;;;7.73;81.53;94223.41;4990967;28;20200;-56
2023/03/05 08:55:26;;;;;;;28.33;14.13;;;;;;;7.89;80.96;94238.97;4990762;28;20226;-55
2023/03/05 08:57:52;;;;;;;25.43;13.97;;;;;;;8.01;81.83;94222.78;4990932;28;20657;-57
2023/03/05 09:00:17;;;;;;;29.43;15.27;;;;;;;8.02;79.47;94258.09;4989620;28;20225;-55
2023/03/05 09:02:56;;;;;;;25.33;13.07;;;;;;;7.90;79.12;94258.28;4990700;28;20198;-55
2023/03/05 09:05:21;;;;;;;27.73;14.40;;;;;;;7.89;78.70;94276.91;4989488;28;20727;-56
2023/03/05 09:07:47;;;;;;;23.17;13.53;;;;;;;7.89;76.75;94308.09;4990660;28;20227;-59
2023/03/05 09:10:13;;;;;;;27.60;13.40;;;;;;;7.74;76.51;94308.50;4990706;28;20220;-58
2023/03/05 09:12:40;;;;;;;27.87;14.00;;;;;;;7.52;77.59;94279.84;4989394;28;20192;-58
2023/03/05 09:15:07;;;;;;;23.70;13.23;;;;;;;7.64;77.44;94309.22;4990732;28;20319;-58
2023/03/05 09:17:35;;;;;;;26.73;13.80;;;;;;;7.55;76.31;94289.69;4990702;28;20184;-54
2023/03/05 09:20:02;;;;;;;28.37;14.20;;;;;;;7.54;75.92;94325.25;4990570;28;20222;-54
2023/03/05 09:22:28;;;;;;;28.73;13.97;;;;;;;8.38;100.00;93809.41;4990669;28;20282;-56
2023/03/05 09:24:54;;;;;;;26.83;13.47;;;;;;;9.74;74.27;94431.16;4991094;28;20214;-57
2023/03/05 09:27:19;;;;;;;27.13;14.13;;;;;;;8.91;72.70;94368.94;4990731;28;21055;-56
2023/03/05 09:29:45;;;;;;;23.83;13.13;;;;;;;8.48;72.14;94355.66;4990866;28;20734;-58
2023/03/05 09:32:10;;;;;;;25.97;13.60;;;;;;;8.01;74.14;94319.75;4990674;28;20221;-57
2023/03/05 09:34:35;;;;;;;25.93;13.13;;;;;;;7.98;73.82;94284.56;4990439;28;20211;-56
2023/03/05 09:37:02;;;;;;;30.33;12.87;;;;;;;7.95;72.11;94306.78;4989517;28;20284;-56
2023/03/05 09:39:27;;;;;;;23.20;12.80;;;;;;;8.12;72.98;94308.78;4990268;28;20249;-56
2023/03/05 09:42:22;;;;;;;24.00;13.13;;;;;;;8.22;71.42;94356.00;4989258;28;20192;-60
2023/03/05 09:44:57;;;;;;;18.63;11.80;;;;;;;8.40;70.20;94371.50;4990119;28;20214;-59
2023/03/05 09:47:34;;;;;;;26.23;12.53;;;;;;;8.24;69.96;94343.25;4990444;28;20199;-60
2023/03/05 09:50:22;;;;;;;26.80;13.17;;;;;;;8.41;70.23;94348.56;4990603;28;20218;-57
2023/03/05 09:52:53;;;;;;;18.40;11.50;;;;;;;8.47;68.80;94372.59;4989012;28;20623;-57
2023/03/05 09:55:26;;;;;;;20.80;11.13;;;;;;;8.40;67.64;94400.13;4990331;28;20212;-57
2023/03/05 09:57:56;;;;;;;21.17;11.33;;;;;;;9.38;83.41;94134.16;4990375;28;20219;-53
2023/03/05 10:00:53;;;;;;;20.27;11.43;;;;;;;9.19;67.49;94441.81;4988547;28;20272;-54
2023/03/05 10:03:23;;;;;;;16.33;11.40;;;;;;;8.84;68.24;94367.84;4990329;28;20222;-57
2023/03/05 10:06:04;;;;;;;18.80;12.10;;;;;;;8.91;67.11;94399.34;4990097;28;20211;-56
2023/03/05 10:08:47;;;;;;;22.00;11.67;;;;;;;8.84;65.41;94448.97;4990363;28;20201;-56
2023/03/05 10:11:48;;;;;;;21.50;11.73;;;;;;;8.70;64.06;94454.34;4988967;28;20667;-54
2023/03/05 10:14:26;;;;;;;19.77;10.83;;;;;;;8.87;63.44;94456.31;4990497;28;20260;-55
2023/03/05 10:17:11;;;;;;;19.77;10.73;;;;;;;8.97;64.60;94427.53;4988818;28;20211;-55
2023/03/05 10:19:51;;;;;;;20.57;11.83;;;;;;;9.33;64.86;94405.97;4990175;28;20224;-54
2023/03/05 10:22:21;;;;;;;21.47;12.37;;;;;;;9.64;64.34;94412.59;4990022;28;20195;-56
2023/03/05 10:25:01;;;;;;;18.00;11.47;;;;;;;9.26;63.75;94435.28;4988743;28;20211;-58
2023/03/05 10:27:52;;;;;;;21.93;12.73;;;;;;;9.19;63.37;94429.13;4989874;28;20195;-54
2023/03/05 10:30:32;;;;;;;21.63;11.17;;;;;;;8.93;63.69;94402.56;4988607;28;20592;-55
2023/03/05 10:33:20;;;;;;;19.00;12.03;;;;;;;8.80;65.31;94351.31;4988358;28;20198;-56
2023/03/05 10:35:57;;;;;;;18.87;10.77;;;;;;;9.16;65.72;94318.63;4990183;28;20652;-56
2023/03/05 10:38:43;;;;;;;23.17;12.30;;;;;;;8.80;65.61;94326.78;4990067;28;20266;-56
2023/03/05 10:41:32;;;;;;;18.60;12.00;;;;;;;8.95;65.38;94332.28;4989845;28;20276;-56
2023/03/05 10:44:01;;;;;;;22.70;12.73;;;;;;;9.01;63.41;94387.53;4989926;28;20214;-54
2023/03/05 10:46:33;;;;;;;18.23;11.57;;;;;;;9.09;63.12;94382.66;4988329;28;20203;-55
2023/03/05 10:49:11;;;;;;;20.23;11.40;;;;;;;8.94;63.42;94376.31;4989361;28;20242;-55
2023/03/05 10:51:44;;;;;;;18.50;11.37;;;;;;;9.05;63.11;94374.47;4989629;28;20195;-54
2023/03/05 10:54:24;;;;;;;20.90;11.40;;;;;;;9.12;61.84;94415.34;4989952;28;20212;-55
2023/03/05 10:57:00;;;;;;;21.00;11.43;;;;;;;8.99;60.78;94438.38;4989695;28;20195;-53
2023/03/05 10:59:26;;;;;;;23.37;14.27;;;;;;;9.05;60.37;94442.16;4989464;28;20223;-55
2023/03/05 11:02:07;;;;;;;16.90;9.63;;;;;;;9.06;59.97;94441.22;4988417;28;20716;-55
2023/03/05 11:04:38;;;;;;;14.30;8.53;;;;;;;9.11;59.80;94436.56;4989594;28;20204;-56
2023/03/05 11:07:26;;;;;;;13.87;8.47;;;;;;;9.43;59.49;94449.13;4989439;28;20233;-57
2023/03/05 11:10:03;;;;;;;13.93;8.43;;;;;;;9.49;59.25;94456.22;4989226;28;20211;-55
2023/03/05 11:12:34;;;;;;;17.23;10.07;;;;;;;9.46;58.37;94454.72;5003605;28;20195;-56
2023/03/05 11:15:09;;;;;;;13.63;8.93;;;;;;;9.51;59.72;94417.09;4989182;28;20218;-56
2023/03/05 11:17:43;;;;;;;16.13;9.80;;;;;;;9.59;58.89;94434.22;5004132;28;20201;-57
2023/03/05 11:20:30;;;;;;;15.40;8.83;;;;;;;9.68;59.38;94416.47;4989169;28;20227;-57
2023/03/05 11:23:08;;;;;;;14.63;8.87;;;;;;;9.57;58.84;94431.81;4989269;28;20188;-60